EDT,Max TemperatureF,Mean TemperatureF,Min TemperatureF,Max Dew PointF,MeanDew PointF,Min DewpointF,Max Humidity, Mean Humidity, Min Humidity, Max Sea Level PressureIn, Mean Sea Level PressureIn, Min Sea Level PressureIn, Max VisibilityMiles, Mean VisibilityMiles, Min VisibilityMiles, Max Wind SpeedMPH, Mean Wind SpeedMPH, Max Gust SpeedMPH,PrecipitationIn, CloudCover, Events, WindDirDegrees
2013-7-1,75,72,71,72,71,69,100,94,90,30.06,29.97,29.90,8,3,0,15,6,22,1.43,8,Fog-Rain-Thunderstorm,151
2013-7-2,82,76,71,73,71,69,96,87,74,30.18,30.12,30.06,10,6,1,12,6,,0.02,6,Rain,162
2013-7-3,82,76,72,72,70,67,96,81,69,30.24,30.20,30.17,10,9,3,10,3,16,0.05,4,Rain-Thunderstorm,171
2013-7-4,88,80,73,73,71,69,94,78,57,30.25,30.20,30.14,10,9,5,12,3,16,0.00,4,,225
2013-7-5,90,81,73,73,70,67,87,70,50,30.20,30.15,30.08,10,10,10,10,4,22,0.00,1,,238
2013-7-6,90,82,75,72,71,69,85,67,52,30.12,30.07,30.01,10,10,10,12,5,17,0.00,1,,264
2013-7-7,91,83,73,73,71,68,87,69,48,30.04,29.98,29.92,10,10,5,10,4,23,0.04,1,Rain-Thunderstorm,221
2013-7-8,87,78,70,70,67,64,90,70,49,30.04,29.99,29.95,10,10,8,12,6,17,0.00,2,Thunderstorm,254
2013-7-9,84,78,71,72,69,66,90,74,56,30.06,30.03,29.99,10,9,6,9,3,,0.00,3,Rain-Thunderstorm,136
2013-7-10,84,78,72,75,72,68,91,78,61,30.00,29.89,29.80,10,6,1,10,3,16,0.35,5,Rain,215
2013-7-11,82,78,72,73,69,60,94,77,60,29.92,29.85,29.79,10,8,0,12,4,,1.03,3,Fog-Rain-Thunderstorm,318
2013-7-12,77,70,64,68,64,59,94,77,64,30.11,30.03,29.92,10,8,1,10,7,18,0.22,6,Rain,60
2013-7-13,80,72,64,73,69,62,100,91,79,30.30,30.24,30.12,10,5,0,10,7,,0.13,7,Fog-Rain,93
2013-7-14,89,81,73,73,72,69,97,81,53,30.34,30.29,30.22,10,5,0,12,2,,0.00,3,Fog,273
2013-7-15,91,84,77,75,72,69,88,70,52,30.22,30.18,30.12,10,10,10,14,6,,0.00,3,,309
2013-7-16,91,82,73,72,67,63,87,62,39,30.19,30.16,30.12,10,10,10,15,8,21,0.00,1,,332
2013-7-17,93,83,75,71,68,62,84,62,37,30.19,30.12,30.05,10,10,10,9,6,,0.00,1,,307
2013-7-18,93,85,77,75,71,69,81,64,45,30.10,30.00,29.95,10,9,7,7,3,,0.00,1,,302
2013-7-19,93,86,79,74,72,70,82,62,47,29.96,29.87,29.77,10,8,6,13,5,22,0.00,1,,261
2013-7-20,90,84,79,74,70,68,74,64,50,29.83,29.76,29.70,10,8,6,12,6,20,0.00,2,,252
2013-7-21,82,77,72,71,63,57,91,64,42,29.96,29.91,29.84,10,10,9,10,3,,0.00,3,,92
2013-7-22,81,76,71,74,71,67,97,88,72,29.96,29.90,29.81,10,5,0,7,3,,0.30,6,Rain-Thunderstorm,97
2013-7-23,87,78,71,73,71,69,100,87,59,29.78,29.65,29.55,10,5,0,12,5,,2.13,6,Fog-Rain-Thunderstorm,177
2013-7-24,80,73,64,72,64,50,100,72,56,29.92,29.73,29.60,10,9,0,18,7,25,0.01,3,Fog,319
2013-7-25,64,62,61,57,53,50,84,70,60,30.06,30.01,29.93,10,10,10,15,9,17,0.01,7,Rain,19
2013-7-26,80,70,63,63,59,57,90,71,50,30.04,30.01,29.99,10,10,9,14,8,20,0.00,4,Rain,350
2013-7-27,81,72,64,64,62,59,93,71,50,30.05,30.02,29.96,10,10,8,12,3,,0.01,2,,179
2013-7-28,75,70,64,69,66,63,100,87,71,30.00,29.97,29.94,10,6,1,13,3,,0.24,5,Rain,130
2013-7-29,82,74,66,69,63,53,100,74,42,30.09,30.00,29.95,10,7,0,10,2,17,0.01,3,Fog-Rain,286
2013-7-30,79,70,61,59,56,54,84,64,48,30.15,30.12,30.09,10,10,10,13,7,17,0.00,1,,306
2013-7-31,81,70,60,61,58,53,90,66,43,30.15,30.10,30.04,10,10,10,9,5,,0.00,2,,307